createdAt,value
2022-10-02T00:02:05.079Z,11.92
2022-10-02T00:04:43.882Z,11.93
2022-10-02T00:07:18.273Z,11.95
2022-10-02T00:09:54.571Z,11.94
2022-10-02T00:12:30.238Z,11.95
2022-10-02T00:15:08.546Z,11.97
2022-10-02T00:17:44.454Z,11.98
2022-10-02T00:20:24.813Z,12.00
2022-10-02T00:23:03.232Z,12.00
2022-10-02T00:25:41.771Z,12.03
2022-10-02T00:28:23.859Z,12.05
2022-10-02T00:31:11.196Z,12.06
2022-10-02T00:33:53.634Z,12.07
2022-10-02T00:36:35.059Z,12.07
2022-10-02T00:39:20.027Z,12.05
2022-10-02T00:42:17.897Z,12.07
2022-10-02T00:45:00.173Z,12.06
2022-10-02T00:47:43.394Z,12.04
2022-10-02T00:50:33.136Z,12.01
2022-10-02T00:53:17.481Z,12.01
2022-10-02T00:56:01.170Z,12.05
2022-10-02T00:58:51.110Z,12.07
2022-10-02T01:01:30.201Z,12.06
2022-10-02T01:04:08.865Z,12.03
2022-10-02T01:06:40.578Z,12.06
2022-10-02T01:09:12.864Z,12.09
2022-10-02T01:11:45.115Z,12.10
2022-10-02T01:14:19.312Z,12.11
2022-10-02T01:16:51.907Z,12.10
2022-10-02T01:19:32.883Z,12.10
2022-10-02T01:22:11.233Z,12.11
2022-10-02T01:24:51.540Z,12.09
2022-10-02T01:27:24.122Z,12.09
2022-10-02T01:30:00.229Z,12.11
2022-10-02T01:32:31.839Z,12.12
2022-10-02T01:35:04.919Z,12.13
2022-10-02T01:37:39.498Z,12.12
2022-10-02T01:40:31.106Z,12.12
2022-10-02T01:43:06.275Z,12.11
2022-10-02T01:45:52.146Z,12.12
2022-10-02T01:48:36.191Z,12.08
2022-10-02T01:51:27.129Z,11.99
2022-10-02T01:54:09.284Z,11.92
2022-10-02T01:56:48.981Z,11.85
2022-10-02T01:59:33.050Z,11.84
2022-10-02T02:02:15.984Z,11.84
2022-10-02T02:04:56.054Z,11.86
2022-10-02T02:07:35.753Z,11.87
2022-10-02T02:10:15.168Z,11.87
2022-10-02T02:12:54.578Z,11.86
2022-10-02T02:15:30.129Z,11.89
2022-10-02T02:18:10.767Z,11.90
2022-10-02T02:20:47.954Z,11.92
2022-10-02T02:23:26.409Z,11.92
2022-10-02T02:26:03.780Z,11.91
2022-10-02T02:28:37.545Z,11.91
2022-10-02T02:31:13.818Z,11.92
2022-10-02T02:33:59.114Z,11.92
2022-10-02T02:36:37.876Z,11.93
2022-10-02T02:39:14.117Z,11.93
2022-10-02T02:41:50.842Z,11.90
2022-10-02T02:44:28.619Z,11.90
2022-10-02T02:47:06.566Z,11.89
2022-10-02T02:49:50.940Z,11.90
2022-10-02T02:52:27.450Z,11.91
2022-10-02T02:55:05.932Z,11.94
2022-10-02T02:57:44.740Z,11.97
2022-10-02T03:00:21.347Z,11.97
2022-10-02T03:02:54.705Z,11.94
2022-10-02T03:05:28.016Z,11.96
2022-10-02T03:08:05.809Z,11.97
2022-10-02T03:10:50.456Z,11.98
2022-10-02T03:13:37.345Z,11.99
2022-10-02T03:16:23.340Z,11.96
2022-10-02T03:19:05.623Z,11.94
2022-10-02T03:21:49.512Z,11.92
2022-10-02T03:24:28.886Z,11.90
2022-10-02T03:27:05.993Z,11.89
2022-10-02T03:29:41.747Z,11.89
2022-10-02T03:32:16.483Z,11.88
2022-10-02T03:34:49.068Z,11.88
2022-10-02T03:37:21.643Z,11.88
2022-10-02T03:39:54.056Z,11.88
2022-10-02T03:42:30.380Z,11.89
2022-10-02T03:45:02.096Z,11.89
2022-10-02T03:47:33.717Z,11.89
2022-10-02T03:50:05.633Z,11.87
2022-10-02T03:52:39.175Z,11.84
2022-10-02T03:55:27.997Z,11.85
2022-10-02T03:58:01.254Z,11.87
2022-10-02T04:00:38.727Z,11.87
2022-10-02T04:03:18.367Z,11.88
2022-10-02T04:05:56.498Z,11.88
2022-10-02T04:08:32.851Z,11.85
2022-10-02T04:11:09.784Z,11.86
2022-10-02T04:13:46.953Z,11.86
2022-10-02T04:16:21.578Z,11.83
2022-10-02T04:18:59.521Z,11.79
2022-10-02T04:21:39.571Z,11.75
2022-10-02T04:24:19.410Z,11.74
2022-10-02T04:27:07.183Z,11.75
2022-10-02T04:29:45.401Z,11.75
2022-10-02T04:32:18.675Z,11.75
2022-10-02T04:34:52.811Z,11.79
2022-10-02T04:37:38.803Z,11.79
2022-10-02T04:40:30.209Z,11.79
2022-10-02T04:43:18.571Z,11.80
2022-10-02T04:46:05.849Z,11.81
2022-10-02T04:48:53.971Z,11.82
2022-10-02T04:51:46.811Z,11.82
2022-10-02T04:54:38.575Z,11.77
2022-10-02T04:57:25.381Z,11.72
2022-10-02T05:00:10.700Z,11.68
2022-10-02T05:03:04.658Z,11.64
2022-10-02T05:06:04.490Z,11.64
2022-10-02T05:08:51.964Z,11.63
2022-10-02T05:11:55.275Z,11.61
2022-10-02T05:15:05.869Z,11.63
2022-10-02T05:17:58.907Z,11.62
2022-10-02T05:20:55.932Z,11.63
2022-10-02T05:23:42.692Z,11.66
2022-10-02T05:26:28.653Z,11.67
2022-10-02T05:29:16.566Z,11.71
2022-10-02T05:32:10.204Z,11.70
2022-10-02T05:34:59.829Z,11.70
2022-10-02T05:37:46.123Z,11.70
2022-10-02T05:40:23.028Z,11.67
2022-10-02T05:43:04.073Z,11.68
2022-10-02T05:45:38.325Z,11.71
2022-10-02T05:48:16.964Z,11.72
2022-10-02T05:50:54.275Z,11.74
2022-10-02T05:53:36.939Z,11.74
2022-10-02T05:56:14.838Z,11.74
2022-10-02T05:58:53.025Z,11.75
2022-10-02T06:01:28.990Z,11.79
2022-10-02T06:04:09.533Z,11.84
2022-10-02T06:06:47.081Z,11.89
2022-10-02T06:09:21.862Z,11.90
2022-10-02T06:11:59.382Z,11.93
2022-10-02T06:14:35.828Z,11.96
2022-10-02T06:17:12.410Z,11.98
2022-10-02T06:19:49.737Z,11.98
2022-10-02T06:22:24.324Z,11.99
2022-10-02T06:25:01.346Z,11.99
2022-10-02T06:27:40.249Z,12.00
2022-10-02T06:30:20.805Z,12.08
2022-10-02T06:32:59.508Z,12.13
2022-10-02T06:35:43.185Z,12.18
2022-10-02T06:38:26.990Z,12.23
2022-10-02T06:41:08.106Z,12.24
2022-10-02T06:43:46.781Z,12.25
2022-10-02T06:46:27.813Z,12.24
2022-10-02T06:49:01.450Z,12.27
2022-10-02T06:51:48.091Z,12.28
2022-10-02T06:54:29.340Z,12.31
2022-10-02T06:57:14.947Z,12.35
2022-10-02T06:59:59.081Z,12.40
2022-10-02T07:02:49.858Z,12.42
2022-10-02T07:05:49.748Z,12.48
2022-10-02T07:08:34.319Z,12.53
2022-10-02T07:11:13.718Z,12.59
2022-10-02T07:13:59.115Z,12.70
2022-10-02T07:16:39.938Z,12.84
2022-10-02T07:19:30.083Z,12.91
2022-10-02T07:22:39.607Z,13.00
2022-10-02T07:25:19.012Z,13.12
2022-10-02T07:28:01.140Z,13.14
2022-10-02T07:30:41.117Z,13.09
2022-10-02T07:33:25.412Z,13.16
2022-10-02T07:36:09.931Z,13.28
2022-10-02T07:38:55.108Z,13.48
2022-10-02T07:41:54.595Z,13.62
2022-10-02T07:44:41.970Z,13.74
2022-10-02T07:47:25.938Z,13.87
2022-10-02T07:50:09.936Z,13.98
2022-10-02T07:52:48.618Z,14.08
2022-10-02T07:55:22.770Z,14.10
2022-10-02T07:58:01.530Z,14.06
2022-10-02T08:00:38.023Z,14.10
2022-10-02T08:03:15.743Z,14.18
2022-10-02T08:05:50.316Z,14.18
2022-10-02T08:08:27.089Z,14.21
2022-10-02T08:11:07.477Z,14.28
2022-10-02T08:13:48.063Z,14.36
2022-10-02T08:16:23.371Z,14.34
2022-10-02T08:19:01.283Z,14.27
2022-10-02T08:21:37.121Z,14.14
2022-10-02T08:24:16.222Z,14.04
2022-10-02T08:26:53.551Z,13.97
2022-10-02T08:29:30.094Z,13.97
2022-10-02T08:32:01.812Z,14.00
2022-10-02T08:34:35.548Z,14.08
2022-10-02T08:37:26.424Z,14.22
2022-10-02T08:40:39.291Z,14.34
2022-10-02T08:43:32.387Z,14.43
2022-10-02T08:46:38.272Z,14.43
2022-10-02T08:49:38.567Z,14.54
2022-10-02T08:52:52.061Z,14.85
2022-10-02T08:55:44.166Z,15.01
2022-10-02T08:58:44.215Z,15.22
2022-10-02T09:01:36.172Z,15.28
2022-10-02T09:04:40.667Z,15.22
2022-10-02T09:08:02.224Z,15.18
2022-10-02T09:11:01.700Z,15.19
2022-10-02T09:14:11.670Z,15.33
2022-10-02T09:17:06.359Z,15.45
2022-10-02T09:20:13.795Z,15.53
2022-10-02T09:23:09.610Z,15.62
2022-10-02T09:25:56.797Z,15.74
2022-10-02T09:28:57.105Z,15.94
2022-10-02T09:31:54.190Z,16.17
2022-10-02T09:34:55.090Z,16.24
2022-10-02T09:37:46.882Z,16.32
2022-10-02T09:41:06.555Z,16.39
2022-10-02T09:44:07.954Z,16.31
2022-10-02T09:47:04.725Z,16.37
2022-10-02T09:50:02.634Z,16.47
2022-10-02T09:52:57.811Z,16.57
2022-10-02T09:56:00.339Z,16.60
2022-10-02T09:59:08.529Z,16.78
2022-10-02T10:02:08.503Z,16.81
2022-10-02T10:05:11.826Z,16.71
2022-10-02T10:08:23.859Z,16.67
2022-10-02T10:11:30.134Z,16.80
2022-10-02T10:14:19.383Z,16.88
2022-10-02T10:17:23.529Z,17.02
2022-10-02T10:20:36.881Z,17.22
2022-10-02T10:23:27.811Z,17.36
2022-10-02T10:26:04.301Z,17.33
2022-10-02T10:29:12.260Z,17.35
2022-10-02T10:32:08.696Z,17.50
2022-10-02T10:35:13.284Z,17.48
2022-10-02T10:38:21.540Z,17.46
2022-10-02T10:41:26.064Z,17.40
2022-10-02T10:44:33.371Z,17.49
2022-10-02T10:47:39.217Z,17.42
2022-10-02T10:50:39.525Z,17.37
2022-10-02T10:53:40.977Z,17.42
2022-10-02T10:56:32.724Z,17.56
2022-10-02T10:59:25.436Z,17.73
2022-10-02T11:02:14.489Z,17.91
2022-10-02T11:05:06.796Z,18.12
2022-10-02T11:07:53.790Z,18.18
2022-10-02T11:10:36.797Z,18.20
2022-10-02T11:13:41.888Z,18.32
2022-10-02T11:16:38.324Z,18.44
2022-10-02T11:19:40.555Z,18.38
2022-10-02T11:22:38.388Z,18.28
2022-10-02T11:25:29.497Z,18.16
2022-10-02T11:28:26.787Z,18.04
2022-10-02T11:31:11.420Z,17.95
2022-10-02T11:33:56.544Z,17.87
2022-10-02T11:36:44.086Z,17.65
2022-10-02T11:39:33.161Z,17.31
2022-10-02T11:42:33.632Z,17.29
2022-10-02T11:45:27.216Z,17.61
2022-10-02T11:48:19.798Z,17.89
2022-10-02T11:51:10.549Z,18.12
2022-10-02T11:54:05.957Z,18.35
2022-10-02T11:57:00.625Z,18.60
2022-10-02T12:00:05.960Z,18.92
2022-10-02T12:02:47.779Z,19.12
2022-10-02T12:05:46.909Z,19.20
2022-10-02T12:08:30.421Z,19.17
2022-10-02T12:11:11.471Z,19.06
2022-10-02T12:14:11.528Z,18.95
2022-10-02T12:17:02.490Z,18.67
2022-10-02T12:23:39.500Z,18.13
2022-10-02T12:26:40.713Z,17.88
2022-10-02T12:29:25.508Z,17.67
2022-10-02T12:32:08.454Z,17.51
2022-10-02T12:34:53.681Z,17.24
2022-10-02T12:37:33.042Z,17.00
2022-10-02T12:40:20.852Z,16.79
2022-10-02T12:43:13.241Z,16.59
2022-10-02T12:46:05.245Z,16.44
2022-10-02T12:49:01.010Z,16.28
2022-10-02T12:51:47.782Z,16.08
2022-10-02T12:54:45.896Z,15.94
2022-10-02T12:57:51.704Z,15.78
2022-10-02T13:00:28.437Z,15.61
2022-10-02T13:03:43.596Z,15.59
2022-10-02T13:07:11.069Z,15.48
2022-10-02T13:09:52.970Z,15.24
2022-10-02T13:12:42.550Z,15.04
2022-10-02T13:15:45.260Z,14.75
2022-10-02T13:18:33.935Z,14.40
2022-10-02T13:21:14.309Z,14.10
2022-10-02T13:23:58.610Z,13.82
2022-10-02T13:26:38.904Z,13.58
2022-10-02T13:29:25.779Z,13.35
2022-10-02T13:32:11.884Z,13.27
2022-10-02T13:35:07.260Z,13.39
2022-10-02T13:38:01.233Z,13.65
2022-10-02T13:40:43.058Z,13.83
2022-10-02T13:43:34.683Z,13.98
2022-10-02T13:46:23.452Z,14.21
2022-10-02T13:49:06.091Z,14.46
2022-10-02T13:51:47.421Z,14.84
2022-10-02T13:54:23.652Z,15.07
2022-10-02T13:57:04.786Z,15.21
2022-10-02T13:59:52.053Z,15.33
2022-10-02T14:02:47.460Z,15.36
2022-10-02T14:05:32.778Z,15.36
2022-10-02T14:08:20.079Z,15.23
2022-10-02T14:11:07.921Z,15.22
2022-10-02T14:13:52.623Z,15.20
2022-10-02T14:16:38.230Z,15.19
2022-10-02T14:19:43.017Z,15.14
2022-10-02T14:22:34.964Z,15.12
2022-10-02T14:25:20.537Z,15.08
2022-10-02T14:28:06.689Z,15.04
2022-10-02T14:30:57.770Z,15.10
2022-10-02T14:33:45.948Z,15.10
2022-10-02T14:36:24.014Z,15.14
2022-10-02T14:39:10.435Z,15.17
2022-10-02T14:42:06.237Z,15.20
2022-10-02T14:45:00.585Z,15.17
2022-10-02T14:47:48.403Z,15.17
2022-10-02T14:50:34.275Z,15.16
2022-10-02T14:53:19.325Z,15.10
2022-10-02T14:56:15.270Z,15.09
2022-10-02T14:58:59.183Z,15.09
2022-10-02T15:01:31.504Z,15.09
2022-10-02T15:04:22.110Z,15.10
2022-10-02T15:07:06.255Z,15.05
2022-10-02T15:09:50.688Z,14.99
2022-10-02T15:12:28.524Z,14.95
2022-10-02T15:15:11.729Z,14.90
2022-10-02T15:18:00.462Z,14.84
2022-10-02T15:20:50.152Z,14.74
2022-10-02T15:23:42.508Z,14.68
2022-10-02T15:26:30.419Z,14.64
2022-10-02T15:29:15.431Z,14.57
2022-10-02T15:32:11.965Z,14.56
2022-10-02T15:34:53.791Z,14.56
2022-10-02T15:37:30.891Z,14.54
2022-10-02T15:40:13.643Z,14.54
2022-10-02T15:42:51.264Z,14.51
2022-10-02T15:45:45.082Z,14.42
2022-10-02T15:48:33.940Z,14.34
2022-10-02T15:51:20.272Z,14.24
2022-10-02T15:54:00.551Z,14.12
2022-10-02T15:56:50.179Z,14.03
2022-10-02T15:59:35.841Z,13.97
2022-10-02T16:02:24.840Z,13.90
2022-10-02T16:05:09.741Z,13.83
2022-10-02T16:08:06.747Z,13.75
2022-10-02T16:10:51.946Z,13.63
2022-10-02T16:13:47.037Z,13.56
2022-10-02T16:16:32.725Z,13.48
2022-10-02T16:19:16.442Z,13.40
2022-10-02T16:22:04.597Z,13.28
2022-10-02T16:24:59.449Z,13.18
2022-10-02T16:27:46.749Z,13.07
2022-10-02T16:30:20.221Z,12.97
2022-10-02T16:33:20.171Z,12.89
2022-10-02T16:36:14.138Z,12.78
2022-10-02T16:38:50.666Z,12.68
2022-10-02T16:41:38.577Z,12.67
2022-10-02T16:44:28.649Z,12.70
2022-10-02T16:47:08.586Z,12.72
2022-10-02T16:49:51.121Z,12.73
2022-10-02T16:52:30.730Z,12.71
2022-10-02T16:55:14.624Z,12.70
2022-10-02T16:58:06.075Z,12.65
2022-10-02T17:00:51.937Z,12.60
2022-10-02T17:03:33.689Z,12.53
2022-10-02T17:06:16.916Z,12.45
2022-10-02T17:08:53.924Z,12.38
2022-10-02T17:11:30.030Z,12.30
2022-10-02T17:14:12.341Z,12.25
2022-10-02T17:16:54.022Z,12.19
2022-10-02T17:19:31.304Z,12.14
2022-10-02T17:22:11.265Z,12.10
2022-10-02T17:24:54.047Z,12.03
2022-10-02T17:27:41.299Z,11.95
2022-10-02T17:30:24.227Z,11.89
2022-10-02T17:33:08.565Z,11.84
2022-10-02T17:35:52.426Z,11.79
2022-10-02T17:38:53.547Z,11.74
2022-10-02T17:41:38.189Z,11.68
2022-10-02T17:44:18.311Z,11.65
2022-10-02T17:47:15.253Z,11.63
2022-10-02T17:49:59.976Z,11.61
2022-10-02T17:52:59.306Z,11.56
2022-10-02T17:56:16.910Z,11.51
2022-10-02T17:59:00.445Z,11.48
2022-10-02T18:01:42.519Z,11.46
2022-10-02T18:04:26.572Z,11.44
2022-10-02T18:07:16.264Z,11.42
2022-10-02T18:10:01.453Z,11.38
2022-10-02T18:13:00.999Z,11.36
2022-10-02T18:15:50.058Z,11.33
2022-10-02T18:18:39.060Z,11.30
2022-10-02T18:21:29.064Z,11.27
2022-10-02T18:24:16.074Z,11.24
2022-10-02T18:27:08.575Z,11.20
2022-10-02T18:29:53.552Z,11.16
2022-10-02T18:33:02.190Z,11.13
2022-10-02T18:35:55.226Z,11.09
2022-10-02T18:38:32.643Z,11.05
2022-10-02T18:41:24.335Z,11.01
2022-10-02T18:44:25.244Z,10.95
2022-10-02T18:47:08.419Z,10.92
2022-10-02T18:49:53.654Z,10.88
2022-10-02T18:52:50.893Z,10.85
2022-10-02T18:55:41.053Z,10.82
2022-10-02T18:58:25.806Z,10.79
2022-10-02T19:01:35.414Z,10.77
2022-10-02T19:04:24.195Z,10.73
2022-10-02T19:07:03.716Z,10.68
2022-10-02T19:09:35.463Z,10.65
2022-10-02T19:12:18.718Z,10.65
2022-10-02T19:14:56.740Z,10.62
2022-10-02T19:17:29.830Z,10.59
2022-10-02T19:20:01.962Z,10.57
2022-10-02T19:22:38.602Z,10.54
2022-10-02T19:25:17.041Z,10.50
2022-10-02T19:27:55.215Z,10.45
2022-10-02T19:30:56.740Z,10.39
2022-10-02T19:33:36.513Z,10.34
2022-10-02T19:36:15.995Z,10.31
2022-10-02T19:38:53.405Z,10.30
2022-10-02T19:41:27.342Z,10.30
2022-10-02T19:44:06.757Z,10.29
2022-10-02T19:46:42.500Z,10.27
2022-10-02T19:49:22.574Z,10.26
2022-10-02T19:51:55.028Z,10.22
2022-10-02T19:54:31.905Z,10.21
2022-10-02T19:57:06.973Z,10.19
2022-10-02T19:59:43.110Z,10.19
2022-10-02T20:02:22.769Z,10.21
2022-10-02T20:04:58.903Z,10.21
2022-10-02T20:07:35.093Z,10.19
2022-10-02T20:10:12.207Z,10.18
2022-10-02T20:12:51.027Z,10.20
2022-10-02T20:15:41.084Z,10.24
2022-10-02T20:18:14.568Z,10.25
2022-10-02T20:20:48.494Z,10.28
2022-10-02T20:23:29.238Z,10.34
2022-10-02T20:26:08.295Z,10.40
2022-10-02T20:28:47.605Z,10.48
2022-10-02T20:31:24.915Z,10.51
2022-10-02T20:34:00.609Z,10.54
2022-10-02T20:36:37.563Z,10.57
2022-10-02T20:39:14.948Z,10.61
2022-10-02T20:41:55.827Z,10.65
2022-10-02T20:44:29.368Z,10.70
2022-10-02T20:47:32.115Z,10.71
2022-10-02T20:50:29.180Z,10.71
2022-10-02T20:53:33.605Z,10.74
2022-10-02T20:56:17.482Z,10.73
2022-10-02T20:59:14.228Z,10.71
2022-10-02T21:01:58.539Z,10.68
2022-10-02T21:04:58.220Z,10.60
2022-10-02T21:07:47.240Z,10.60
2022-10-02T21:10:45.205Z,10.63
2022-10-02T21:13:38.484Z,10.66
2022-10-02T21:16:29.446Z,10.70
2022-10-02T21:19:16.883Z,10.76
2022-10-02T21:22:21.745Z,10.81
2022-10-02T21:25:35.606Z,10.81
2022-10-02T21:28:29.199Z,10.84
2022-10-02T21:31:13.797Z,10.86
2022-10-02T21:33:59.545Z,10.88
2022-10-02T21:36:38.539Z,10.82
2022-10-02T21:39:47.154Z,10.74
2022-10-02T21:43:02.806Z,10.67
2022-10-02T21:46:23.083Z,10.59
2022-10-02T21:49:30.134Z,10.51
2022-10-02T21:52:34.404Z,10.42
2022-10-02T21:55:34.297Z,10.37
2022-10-02T21:58:26.636Z,10.35
2022-10-02T22:01:42.762Z,10.31
2022-10-02T22:04:59.178Z,10.27
2022-10-02T22:07:40.382Z,10.24
2022-10-02T22:10:23.827Z,10.19
2022-10-02T22:13:06.927Z,10.17
2022-10-02T22:15:49.332Z,10.12
2022-10-02T22:18:31.045Z,10.08
2022-10-02T22:21:19.440Z,10.06
2022-10-02T22:24:08.210Z,10.02
2022-10-02T22:27:01.796Z,9.98
2022-10-02T22:29:45.318Z,9.93
2022-10-02T22:32:53.466Z,9.89
2022-10-02T22:35:37.469Z,9.87
2022-10-02T22:38:16.634Z,9.85
2022-10-02T22:40:55.556Z,9.85
2022-10-02T22:43:37.900Z,9.84
2022-10-02T22:46:23.421Z,9.82
2022-10-02T22:49:03.602Z,9.81
2022-10-02T22:51:46.774Z,9.80
2022-10-02T22:54:28.520Z,9.79
2022-10-02T22:57:11.654Z,9.74
2022-10-02T22:59:49.810Z,9.75
2022-10-02T23:02:31.625Z,9.75
2022-10-02T23:05:12.424Z,9.75
2022-10-02T23:07:50.887Z,9.76
2022-10-02T23:10:33.714Z,9.77
2022-10-02T23:13:24.898Z,9.78
2022-10-02T23:15:58.123Z,9.77
2022-10-02T23:18:39.769Z,9.76
2022-10-02T23:21:31.312Z,9.75
2022-10-02T23:24:21.595Z,9.75
2022-10-02T23:26:58.248Z,9.75
2022-10-02T23:29:40.526Z,9.76
2022-10-02T23:32:24.210Z,9.77
2022-10-02T23:35:04.765Z,9.78
2022-10-02T23:37:48.058Z,9.80
2022-10-02T23:40:49.259Z,9.83
2022-10-02T23:43:30.092Z,9.85
2022-10-02T23:46:05.625Z,9.88
2022-10-02T23:48:40.003Z,9.90
2022-10-02T23:51:21.889Z,9.91
2022-10-02T23:54:10.845Z,9.93
2022-10-02T23:57:04.993Z,9.95
